sensor_id;sensor_type;location;lat;lon;timestamp;temperature;humidity
44823;DHT22;51097;51.984;5.650;2023-08-06T00:02:19;19.50;99.90
44823;DHT22;51097;51.984;5.650;2023-08-06T00:04:45;19.70;99.90
44823;DHT22;51097;51.984;5.650;2023-08-06T00:07:10;19.50;99.90
44823;DHT22;51097;51.984;5.650;2023-08-06T00:09:36;19.50;99.90
44823;DHT22;51097;51.984;5.650;2023-08-06T00:12:02;19.50;99.90
44823;DHT22;51097;51.984;5.650;2023-08-06T00:14:27;19.50;99.90
44823;DHT22;51097;51.984;5.650;2023-08-06T00:16:56;19.50;99.90
44823;DHT22;51097;51.984;5.650;2023-08-06T00:19:22;19.50;99.90
44823;DHT22;51097;51.984;5.650;2023-08-06T00:21:47;19.50;99.90
44823;DHT22;51097;51.984;5.650;2023-08-06T00:24:13;19.40;99.90
44823;DHT22;51097;51.984;5.650;2023-08-06T00:26:39;19.40;99.90
44823;DHT22;51097;51.984;5.650;2023-08-06T00:29:05;19.40;99.90
44823;DHT22;51097;51.984;5.650;2023-08-06T00:31:30;19.50;99.90
44823;DHT22;51097;51.984;5.650;2023-08-06T00:33:56;19.50;99.90
44823;DHT22;51097;51.984;5.650;2023-08-06T00:36:21;19.40;99.90
44823;DHT22;51097;51.984;5.650;2023-08-06T00:38:47;19.50;99.90
44823;DHT22;51097;51.984;5.650;2023-08-06T00:41:13;19.50;99.90
44823;DHT22;51097;51.984;5.650;2023-08-06T00:43:39;19.50;99.90
44823;DHT22;51097;51.984;5.650;2023-08-06T00:46:04;19.60;99.90
44823;DHT22;51097;51.984;5.650;2023-08-06T00:48:31;19.50;99.90
44823;DHT22;51097;51.984;5.650;2023-08-06T00:50:56;19.50;99.90
44823;DHT22;51097;51.984;5.650;2023-08-06T00:53:22;19.60;99.90
44823;DHT22;51097;51.984;5.650;2023-08-06T00:55:48;19.50;99.90
44823;DHT22;51097;51.984;5.650;2023-08-06T00:58:14;19.60;99.90
44823;DHT22;51097;51.984;5.650;2023-08-06T01:00:41;19.40;99.90
44823;DHT22;51097;51.984;5.650;2023-08-06T01:03:07;19.60;99.90
44823;DHT22;51097;51.984;5.650;2023-08-06T01:05:33;19.70;99.90
44823;DHT22;51097;51.984;5.650;2023-08-06T01:11:01;19.60;99.90
44823;DHT22;51097;51.984;5.650;2023-08-06T01:13:42;19.60;99.90
44823;DHT22;51097;51.984;5.650;2023-08-06T01:16:10;19.60;99.90
44823;DHT22;51097;51.984;5.650;2023-08-06T01:18:36;19.40;99.90
44823;DHT22;51097;51.984;5.650;2023-08-06T01:21:04;19.60;99.90
44823;DHT22;51097;51.984;5.650;2023-08-06T01:23:30;19.70;99.90
44823;DHT22;51097;51.984;5.650;2023-08-06T01:26:30;19.50;99.90
44823;DHT22;51097;51.984;5.650;2023-08-06T01:31:44;19.50;99.90
44823;DHT22;51097;51.984;5.650;2023-08-06T01:34:17;19.60;99.90
44823;DHT22;51097;51.984;5.650;2023-08-06T01:36:45;19.60;99.90
44823;DHT22;51097;51.984;5.650;2023-08-06T01:39:10;19.50;99.90
44823;DHT22;51097;51.984;5.650;2023-08-06T01:41:36;19.60;99.90
44823;DHT22;51097;51.984;5.650;2023-08-06T01:44:01;19.50;99.90
44823;DHT22;51097;51.984;5.650;2023-08-06T01:46:27;19.60;99.90
44823;DHT22;51097;51.984;5.650;2023-08-06T01:48:53;19.60;99.90
44823;DHT22;51097;51.984;5.650;2023-08-06T01:51:18;19.60;99.90
44823;DHT22;51097;51.984;5.650;2023-08-06T01:53:44;19.60;99.90
44823;DHT22;51097;51.984;5.650;2023-08-06T01:56:10;19.60;99.90
44823;DHT22;51097;51.984;5.650;2023-08-06T01:58:35;19.60;99.90
44823;DHT22;51097;51.984;5.650;2023-08-06T02:01:02;19.60;99.90
44823;DHT22;51097;51.984;5.650;2023-08-06T02:03:27;19.60;99.90
44823;DHT22;51097;51.984;5.650;2023-08-06T02:05:53;19.60;99.90
44823;DHT22;51097;51.984;5.650;2023-08-06T02:08:19;19.60;99.90
44823;DHT22;51097;51.984;5.650;2023-08-06T02:10:45;19.70;99.90
44823;DHT22;51097;51.984;5.650;2023-08-06T02:13:10;19.60;99.90
44823;DHT22;51097;51.984;5.650;2023-08-06T02:15:42;19.60;99.90
44823;DHT22;51097;51.984;5.650;2023-08-06T02:18:09;19.60;99.90
44823;DHT22;51097;51.984;5.650;2023-08-06T02:20:34;19.60;99.90
44823;DHT22;51097;51.984;5.650;2023-08-06T02:23:00;19.60;99.90
44823;DHT22;51097;51.984;5.650;2023-08-06T02:25:25;19.60;99.90
44823;DHT22;51097;51.984;5.650;2023-08-06T02:27:51;19.60;99.90
44823;DHT22;51097;51.984;5.650;2023-08-06T02:30:16;19.60;99.90
44823;DHT22;51097;51.984;5.650;2023-08-06T02:32:42;19.60;99.90
44823;DHT22;51097;51.984;5.650;2023-08-06T02:35:08;19.60;99.90
44823;DHT22;51097;51.984;5.650;2023-08-06T02:37:34;19.60;99.90
44823;DHT22;51097;51.984;5.650;2023-08-06T02:40:00;19.60;99.90
44823;DHT22;51097;51.984;5.650;2023-08-06T02:42:25;19.60;99.90
44823;DHT22;51097;51.984;5.650;2023-08-06T02:44:52;19.60;99.90
44823;DHT22;51097;51.984;5.650;2023-08-06T02:47:20;19.60;99.90
44823;DHT22;51097;51.984;5.650;2023-08-06T02:49:46;19.60;99.90
44823;DHT22;51097;51.984;5.650;2023-08-06T02:52:11;19.70;99.90
44823;DHT22;51097;51.984;5.650;2023-08-06T02:54:37;19.60;99.90
44823;DHT22;51097;51.984;5.650;2023-08-06T02:57:03;19.60;99.90
44823;DHT22;51097;51.984;5.650;2023-08-06T02:59:29;19.60;99.90
44823;DHT22;51097;51.984;5.650;2023-08-06T03:01:54;19.60;99.90
44823;DHT22;51097;51.984;5.650;2023-08-06T03:04:20;19.60;99.90
44823;DHT22;51097;51.984;5.650;2023-08-06T03:06:45;19.60;99.90
44823;DHT22;51097;51.984;5.650;2023-08-06T03:09:11;19.70;99.90
44823;DHT22;51097;51.984;5.650;2023-08-06T03:11:36;19.60;99.90
44823;DHT22;51097;51.984;5.650;2023-08-06T03:14:02;19.60;99.90
44823;DHT22;51097;51.984;5.650;2023-08-06T03:16:27;19.70;99.90
44823;DHT22;51097;51.984;5.650;2023-08-06T03:18:53;19.60;99.90
44823;DHT22;51097;51.984;5.650;2023-08-06T03:21:19;19.50;99.90
44823;DHT22;51097;51.984;5.650;2023-08-06T03:23:47;19.50;99.90
44823;DHT22;51097;51.984;5.650;2023-08-06T03:26:14;19.50;99.90
44823;DHT22;51097;51.984;5.650;2023-08-06T03:28:39;19.50;99.90
44823;DHT22;51097;51.984;5.650;2023-08-06T03:31:05;19.50;99.90
44823;DHT22;51097;51.984;5.650;2023-08-06T03:33:30;19.50;99.90
44823;DHT22;51097;51.984;5.650;2023-08-06T03:35:56;19.60;99.90
44823;DHT22;51097;51.984;5.650;2023-08-06T03:38:22;19.60;99.90
44823;DHT22;51097;51.984;5.650;2023-08-06T03:40:49;19.50;99.90
44823;DHT22;51097;51.984;5.650;2023-08-06T03:43:14;19.50;99.90
44823;DHT22;51097;51.984;5.650;2023-08-06T03:45:40;19.50;99.90
44823;DHT22;51097;51.984;5.650;2023-08-06T03:48:06;19.50;99.90
44823;DHT22;51097;51.984;5.650;2023-08-06T03:50:32;19.60;99.90
44823;DHT22;51097;51.984;5.650;2023-08-06T03:52:58;19.50;99.90
44823;DHT22;51097;51.984;5.650;2023-08-06T03:55:23;19.50;99.90
44823;DHT22;51097;51.984;5.650;2023-08-06T03:57:49;19.50;99.90
44823;DHT22;51097;51.984;5.650;2023-08-06T04:00:14;19.50;99.90
44823;DHT22;51097;51.984;5.650;2023-08-06T04:02:40;19.60;99.90
44823;DHT22;51097;51.984;5.650;2023-08-06T04:05:06;19.50;99.90
44823;DHT22;51097;51.984;5.650;2023-08-06T04:07:32;19.50;99.90
44823;DHT22;51097;51.984;5.650;2023-08-06T04:10:00;19.50;99.90
44823;DHT22;51097;51.984;5.650;2023-08-06T04:12:27;19.50;99.90
44823;DHT22;51097;51.984;5.650;2023-08-06T04:14:53;19.50;99.90
44823;DHT22;51097;51.984;5.650;2023-08-06T04:17:20;19.50;99.90
44823;DHT22;51097;51.984;5.650;2023-08-06T04:19:53;19.50;99.90
44823;DHT22;51097;51.984;5.650;2023-08-06T04:22:20;19.70;99.90
44823;DHT22;51097;51.984;5.650;2023-08-06T04:24:46;19.50;99.90
44823;DHT22;51097;51.984;5.650;2023-08-06T04:27:13;19.50;99.90
44823;DHT22;51097;51.984;5.650;2023-08-06T04:29:39;19.50;99.90
44823;DHT22;51097;51.984;5.650;2023-08-06T04:32:07;19.50;99.90
44823;DHT22;51097;51.984;5.650;2023-08-06T04:34:32;19.50;99.90
44823;DHT22;51097;51.984;5.650;2023-08-06T04:36:59;19.50;99.90
44823;DHT22;51097;51.984;5.650;2023-08-06T04:39:24;19.60;99.90
44823;DHT22;51097;51.984;5.650;2023-08-06T04:41:50;19.60;99.90
44823;DHT22;51097;51.984;5.650;2023-08-06T04:44:15;19.60;99.90
44823;DHT22;51097;51.984;5.650;2023-08-06T04:46:41;19.60;99.90
44823;DHT22;51097;51.984;5.650;2023-08-06T04:49:06;19.60;99.90
44823;DHT22;51097;51.984;5.650;2023-08-06T04:51:32;19.70;99.90
44823;DHT22;51097;51.984;5.650;2023-08-06T04:53:58;19.70;99.90
44823;DHT22;51097;51.984;5.650;2023-08-06T04:56:23;19.70;99.90
44823;DHT22;51097;51.984;5.650;2023-08-06T04:58:50;19.70;99.90
44823;DHT22;51097;51.984;5.650;2023-08-06T05:01:15;19.80;99.90
44823;DHT22;51097;51.984;5.650;2023-08-06T05:03:41;19.80;99.90
44823;DHT22;51097;51.984;5.650;2023-08-06T05:06:06;19.80;99.90
44823;DHT22;51097;51.984;5.650;2023-08-06T05:08:32;19.80;99.90
44823;DHT22;51097;51.984;5.650;2023-08-06T05:10:58;19.90;99.90
44823;DHT22;51097;51.984;5.650;2023-08-06T05:13:23;20.00;99.90
44823;DHT22;51097;51.984;5.650;2023-08-06T05:15:49;20.00;99.90
44823;DHT22;51097;51.984;5.650;2023-08-06T05:18:14;19.80;99.90
44823;DHT22;51097;51.984;5.650;2023-08-06T05:20:41;19.90;99.90
44823;DHT22;51097;51.984;5.650;2023-08-06T05:23:07;20.00;99.90
44823;DHT22;51097;51.984;5.650;2023-08-06T05:25:37;20.00;99.90
44823;DHT22;51097;51.984;5.650;2023-08-06T05:28:03;20.10;99.90
44823;DHT22;51097;51.984;5.650;2023-08-06T05:30:29;20.20;99.90
44823;DHT22;51097;51.984;5.650;2023-08-06T05:32:55;20.20;99.90
44823;DHT22;51097;51.984;5.650;2023-08-06T05:35:21;20.30;99.90
44823;DHT22;51097;51.984;5.650;2023-08-06T05:37:47;20.40;99.90
44823;DHT22;51097;51.984;5.650;2023-08-06T05:40:12;20.40;99.90
44823;DHT22;51097;51.984;5.650;2023-08-06T05:42:38;20.60;99.90
44823;DHT22;51097;51.984;5.650;2023-08-06T05:45:04;20.50;99.90
44823;DHT22;51097;51.984;5.650;2023-08-06T05:47:30;20.50;99.90
44823;DHT22;51097;51.984;5.650;2023-08-06T05:49:55;20.50;99.90
44823;DHT22;51097;51.984;5.650;2023-08-06T05:52:21;20.60;99.90
44823;DHT22;51097;51.984;5.650;2023-08-06T05:54:47;20.60;99.90
44823;DHT22;51097;51.984;5.650;2023-08-06T05:57:12;20.70;99.90
44823;DHT22;51097;51.984;5.650;2023-08-06T05:59:40;20.70;99.90
44823;DHT22;51097;51.984;5.650;2023-08-06T06:02:05;20.60;99.90
44823;DHT22;51097;51.984;5.650;2023-08-06T06:04:31;20.70;99.90
44823;DHT22;51097;51.984;5.650;2023-08-06T06:06:57;20.80;99.90
44823;DHT22;51097;51.984;5.650;2023-08-06T06:09:22;20.80;99.90
44823;DHT22;51097;51.984;5.650;2023-08-06T06:11:48;20.80;99.90
44823;DHT22;51097;51.984;5.650;2023-08-06T06:14:16;20.90;99.90
44823;DHT22;51097;51.984;5.650;2023-08-06T06:16:41;20.90;99.90
44823;DHT22;51097;51.984;5.650;2023-08-06T06:19:07;20.70;99.90
44823;DHT22;51097;51.984;5.650;2023-08-06T06:21:32;20.90;99.90
44823;DHT22;51097;51.984;5.650;2023-08-06T06:23:58;20.90;99.90
44823;DHT22;51097;51.984;5.650;2023-08-06T06:26:24;20.90;99.90
44823;DHT22;51097;51.984;5.650;2023-08-06T06:28:49;20.90;99.90
44823;DHT22;51097;51.984;5.650;2023-08-06T06:31:15;20.90;99.90
44823;DHT22;51097;51.984;5.650;2023-08-06T06:33:40;20.90;99.90
44823;DHT22;51097;51.984;5.650;2023-08-06T06:36:06;20.90;99.90
44823;DHT22;51097;51.984;5.650;2023-08-06T06:38:33;21.00;99.90
44823;DHT22;51097;51.984;5.650;2023-08-06T06:40:59;20.70;99.90
44823;DHT22;51097;51.984;5.650;2023-08-06T06:43:26;20.90;99.90
44823;DHT22;51097;51.984;5.650;2023-08-06T06:45:58;20.90;99.90
44823;DHT22;51097;51.984;5.650;2023-08-06T06:48:28;20.90;99.90
44823;DHT22;51097;51.984;5.650;2023-08-06T06:50:55;20.90;99.90
44823;DHT22;51097;51.984;5.650;2023-08-06T06:53:21;21.00;99.90
44823;DHT22;51097;51.984;5.650;2023-08-06T06:55:55;20.90;99.90
44823;DHT22;51097;51.984;5.650;2023-08-06T06:58:21;20.90;99.90
44823;DHT22;51097;51.984;5.650;2023-08-06T07:00:49;20.90;99.90
44823;DHT22;51097;51.984;5.650;2023-08-06T07:03:15;21.00;99.90
44823;DHT22;51097;51.984;5.650;2023-08-06T07:05:43;20.90;99.90
44823;DHT22;51097;51.984;5.650;2023-08-06T07:08:08;21.00;99.90
44823;DHT22;51097;51.984;5.650;2023-08-06T07:10:34;20.90;99.90
44823;DHT22;51097;51.984;5.650;2023-08-06T07:13:00;21.00;99.90
44823;DHT22;51097;51.984;5.650;2023-08-06T07:15:26;21.00;99.90
44823;DHT22;51097;51.984;5.650;2023-08-06T07:17:51;21.00;99.90
44823;DHT22;51097;51.984;5.650;2023-08-06T07:20:17;21.00;99.90
44823;DHT22;51097;51.984;5.650;2023-08-06T07:22:44;21.10;99.90
44823;DHT22;51097;51.984;5.650;2023-08-06T07:25:10;21.10;99.90
44823;DHT22;51097;51.984;5.650;2023-08-06T07:27:36;21.10;99.90
44823;DHT22;51097;51.984;5.650;2023-08-06T07:30:01;21.20;99.90
44823;DHT22;51097;51.984;5.650;2023-08-06T07:32:27;21.20;99.90
44823;DHT22;51097;51.984;5.650;2023-08-06T07:34:55;21.30;99.90
44823;DHT22;51097;51.984;5.650;2023-08-06T07:37:25;21.50;99.90
44823;DHT22;51097;51.984;5.650;2023-08-06T07:39:50;21.50;99.90
44823;DHT22;51097;51.984;5.650;2023-08-06T07:42:16;21.70;99.90
44823;DHT22;51097;51.984;5.650;2023-08-06T07:44:42;21.80;99.90
44823;DHT22;51097;51.984;5.650;2023-08-06T07:47:07;21.90;99.90
44823;DHT22;51097;51.984;5.650;2023-08-06T07:49:33;22.00;99.90
44823;DHT22;51097;51.984;5.650;2023-08-06T07:51:58;22.00;99.90
44823;DHT22;51097;51.984;5.650;2023-08-06T07:54:24;22.00;99.90
44823;DHT22;51097;51.984;5.650;2023-08-06T07:56:50;22.10;99.90
44823;DHT22;51097;51.984;5.650;2023-08-06T07:59:15;22.20;99.90
44823;DHT22;51097;51.984;5.650;2023-08-06T08:01:42;22.20;99.90
44823;DHT22;51097;51.984;5.650;2023-08-06T08:04:07;22.20;99.90
44823;DHT22;51097;51.984;5.650;2023-08-06T08:06:33;22.20;99.90
44823;DHT22;51097;51.984;5.650;2023-08-06T08:08:59;22.30;99.90
44823;DHT22;51097;51.984;5.650;2023-08-06T08:11:25;22.30;99.90
44823;DHT22;51097;51.984;5.650;2023-08-06T08:13:51;22.40;99.90
44823;DHT22;51097;51.984;5.650;2023-08-06T08:16:17;22.30;99.90
44823;DHT22;51097;51.984;5.650;2023-08-06T08:18:42;22.40;99.90
44823;DHT22;51097;51.984;5.650;2023-08-06T08:21:08;22.40;99.90
44823;DHT22;51097;51.984;5.650;2023-08-06T08:23:33;22.50;99.90
44823;DHT22;51097;51.984;5.650;2023-08-06T08:25:59;22.50;99.90
44823;DHT22;51097;51.984;5.650;2023-08-06T08:28:27;22.50;99.90
44823;DHT22;51097;51.984;5.650;2023-08-06T08:30:55;22.40;99.90
44823;DHT22;51097;51.984;5.650;2023-08-06T08:33:22;22.40;99.90
44823;DHT22;51097;51.984;5.650;2023-08-06T08:35:47;22.40;99.90
44823;DHT22;51097;51.984;5.650;2023-08-06T08:38:13;22.40;99.90
44823;DHT22;51097;51.984;5.650;2023-08-06T08:40:45;22.50;99.90
44823;DHT22;51097;51.984;5.650;2023-08-06T08:43:13;22.50;99.90
44823;DHT22;51097;51.984;5.650;2023-08-06T08:45:40;22.60;99.90
44823;DHT22;51097;51.984;5.650;2023-08-06T08:48:08;22.60;99.90
44823;DHT22;51097;51.984;5.650;2023-08-06T08:50:36;22.50;99.90
44823;DHT22;51097;51.984;5.650;2023-08-06T08:53:02;22.50;99.90
44823;DHT22;51097;51.984;5.650;2023-08-06T08:55:28;22.50;99.90
44823;DHT22;51097;51.984;5.650;2023-08-06T08:57:54;22.40;99.90
44823;DHT22;51097;51.984;5.650;2023-08-06T09:00:19;22.20;99.90
44823;DHT22;51097;51.984;5.650;2023-08-06T09:02:45;21.90;99.90
44823;DHT22;51097;51.984;5.650;2023-08-06T09:05:11;21.80;99.90
44823;DHT22;51097;51.984;5.650;2023-08-06T09:07:42;21.60;99.90
44823;DHT22;51097;51.984;5.650;2023-08-06T09:10:11;21.40;99.90
44823;DHT22;51097;51.984;5.650;2023-08-06T09:12:39;21.20;99.90
44823;DHT22;51097;51.984;5.650;2023-08-06T09:15:05;21.10;99.90
44823;DHT22;51097;51.984;5.650;2023-08-06T09:17:31;21.00;99.90
44823;DHT22;51097;51.984;5.650;2023-08-06T09:19:56;20.90;99.90
44823;DHT22;51097;51.984;5.650;2023-08-06T09:22:23;20.80;99.90
44823;DHT22;51097;51.984;5.650;2023-08-06T09:24:48;20.70;99.90
44823;DHT22;51097;51.984;5.650;2023-08-06T09:27:14;20.70;99.90
44823;DHT22;51097;51.984;5.650;2023-08-06T09:29:44;20.60;99.90
44823;DHT22;51097;51.984;5.650;2023-08-06T09:32:11;20.50;99.90
44823;DHT22;51097;51.984;5.650;2023-08-06T09:34:39;20.40;99.90
44823;DHT22;51097;51.984;5.650;2023-08-06T09:37:05;20.30;99.90
44823;DHT22;51097;51.984;5.650;2023-08-06T09:39:31;20.20;99.90
44823;DHT22;51097;51.984;5.650;2023-08-06T09:42:01;19.90;99.90
44823;DHT22;51097;51.984;5.650;2023-08-06T09:44:28;20.00;99.90
44823;DHT22;51097;51.984;5.650;2023-08-06T09:46:58;20.00;99.90
44823;DHT22;51097;51.984;5.650;2023-08-06T09:51:59;19.90;99.90
44823;DHT22;51097;51.984;5.650;2023-08-06T09:54:26;19.90;99.90
44823;DHT22;51097;51.984;5.650;2023-08-06T09:56:56;19.70;99.90
44823;DHT22;51097;51.984;5.650;2023-08-06T09:59:25;19.80;99.90
44823;DHT22;51097;51.984;5.650;2023-08-06T10:01:51;19.70;99.90
44823;DHT22;51097;51.984;5.650;2023-08-06T10:04:20;19.70;99.90
44823;DHT22;51097;51.984;5.650;2023-08-06T10:06:47;19.70;99.90
44823;DHT22;51097;51.984;5.650;2023-08-06T10:09:15;19.60;99.90
44823;DHT22;51097;51.984;5.650;2023-08-06T10:11:42;19.60;99.90
44823;DHT22;51097;51.984;5.650;2023-08-06T10:14:20;19.50;99.90
44823;DHT22;51097;51.984;5.650;2023-08-06T10:16:47;19.40;99.90
44823;DHT22;51097;51.984;5.650;2023-08-06T10:19:14;19.40;99.90
44823;DHT22;51097;51.984;5.650;2023-08-06T10:24:25;19.40;99.90
44823;DHT22;51097;51.984;5.650;2023-08-06T10:26:50;19.40;99.90
44823;DHT22;51097;51.984;5.650;2023-08-06T10:29:35;19.50;99.90
44823;DHT22;51097;51.984;5.650;2023-08-06T10:32:04;19.50;99.90
44823;DHT22;51097;51.984;5.650;2023-08-06T10:35:00;19.50;99.90
44823;DHT22;51097;51.984;5.650;2023-08-06T10:37:35;19.50;99.90
44823;DHT22;51097;51.984;5.650;2023-08-06T10:40:02;19.50;99.90
44823;DHT22;51097;51.984;5.650;2023-08-06T10:42:29;19.50;99.90
44823;DHT22;51097;51.984;5.650;2023-08-06T10:45:14;19.40;99.90
44823;DHT22;51097;51.984;5.650;2023-08-06T10:47:41;19.40;99.90
44823;DHT22;51097;51.984;5.650;2023-08-06T10:50:10;19.50;99.90
44823;DHT22;51097;51.984;5.650;2023-08-06T10:52:35;19.40;99.90
44823;DHT22;51097;51.984;5.650;2023-08-06T10:55:01;19.50;99.90
44823;DHT22;51097;51.984;5.650;2023-08-06T10:57:26;19.50;99.90
44823;DHT22;51097;51.984;5.650;2023-08-06T10:59:52;19.30;99.90
44823;DHT22;51097;51.984;5.650;2023-08-06T11:02:18;19.40;99.90
44823;DHT22;51097;51.984;5.650;2023-08-06T11:04:43;19.40;99.90
44823;DHT22;51097;51.984;5.650;2023-08-06T11:07:09;19.30;99.90
44823;DHT22;51097;51.984;5.650;2023-08-06T11:09:35;19.40;99.90
44823;DHT22;51097;51.984;5.650;2023-08-06T11:12:01;19.40;99.90
44823;DHT22;51097;51.984;5.650;2023-08-06T11:14:26;19.40;99.90
44823;DHT22;51097;51.984;5.650;2023-08-06T11:16:52;19.40;99.90
44823;DHT22;51097;51.984;5.650;2023-08-06T11:19:17;19.50;99.90
44823;DHT22;51097;51.984;5.650;2023-08-06T11:21:43;19.50;99.90
44823;DHT22;51097;51.984;5.650;2023-08-06T11:24:12;19.60;99.90
44823;DHT22;51097;51.984;5.650;2023-08-06T11:26:38;19.50;99.90
44823;DHT22;51097;51.984;5.650;2023-08-06T11:29:05;19.60;99.90
44823;DHT22;51097;51.984;5.650;2023-08-06T11:31:31;19.60;99.90
44823;DHT22;51097;51.984;5.650;2023-08-06T11:33:57;19.60;99.90
44823;DHT22;51097;51.984;5.650;2023-08-06T11:36:37;19.70;99.90
44823;DHT22;51097;51.984;5.650;2023-08-06T11:39:05;19.60;99.90
44823;DHT22;51097;51.984;5.650;2023-08-06T11:41:32;19.60;99.90
44823;DHT22;51097;51.984;5.650;2023-08-06T11:44:01;19.50;99.90
44823;DHT22;51097;51.984;5.650;2023-08-06T11:46:26;19.60;99.90
44823;DHT22;51097;51.984;5.650;2023-08-06T11:48:57;19.60;99.90
44823;DHT22;51097;51.984;5.650;2023-08-06T11:51:27;19.60;99.90
44823;DHT22;51097;51.984;5.650;2023-08-06T11:53:58;19.50;99.90
44823;DHT22;51097;51.984;5.650;2023-08-06T11:56:25;19.60;99.90
44823;DHT22;51097;51.984;5.650;2023-08-06T11:58:54;19.60;99.90
44823;DHT22;51097;51.984;5.650;2023-08-06T12:01:20;19.60;99.90
44823;DHT22;51097;51.984;5.650;2023-08-06T12:03:46;19.70;99.90
44823;DHT22;51097;51.984;5.650;2023-08-06T12:06:11;19.70;99.90
44823;DHT22;51097;51.984;5.650;2023-08-06T12:08:37;19.80;99.90
44823;DHT22;51097;51.984;5.650;2023-08-06T12:11:03;19.60;99.90
44823;DHT22;51097;51.984;5.650;2023-08-06T12:13:29;19.80;99.90
44823;DHT22;51097;51.984;5.650;2023-08-06T12:15:58;19.80;99.90
44823;DHT22;51097;51.984;5.650;2023-08-06T12:18:32;19.90;99.90
44823;DHT22;51097;51.984;5.650;2023-08-06T12:20:58;19.90;99.90
44823;DHT22;51097;51.984;5.650;2023-08-06T12:23:23;20.00;99.90
44823;DHT22;51097;51.984;5.650;2023-08-06T12:25:49;19.90;99.90
44823;DHT22;51097;51.984;5.650;2023-08-06T12:28:15;19.80;99.90
44823;DHT22;51097;51.984;5.650;2023-08-06T12:30:40;19.80;99.90
44823;DHT22;51097;51.984;5.650;2023-08-06T12:33:08;19.80;99.90
44823;DHT22;51097;51.984;5.650;2023-08-06T12:35:38;19.70;99.90
44823;DHT22;51097;51.984;5.650;2023-08-06T12:38:03;19.70;99.90
44823;DHT22;51097;51.984;5.650;2023-08-06T12:40:29;19.70;99.90
44823;DHT22;51097;51.984;5.650;2023-08-06T12:42:54;19.70;99.90
44823;DHT22;51097;51.984;5.650;2023-08-06T12:45:20;19.70;99.90
44823;DHT22;51097;51.984;5.650;2023-08-06T12:47:46;19.70;99.90
44823;DHT22;51097;51.984;5.650;2023-08-06T12:50:12;19.90;99.90
44823;DHT22;51097;51.984;5.650;2023-08-06T12:52:38;19.90;99.90
44823;DHT22;51097;51.984;5.650;2023-08-06T12:55:04;19.80;99.90
44823;DHT22;51097;51.984;5.650;2023-08-06T12:57:29;19.70;99.90
44823;DHT22;51097;51.984;5.650;2023-08-06T12:59:55;19.80;99.90
44823;DHT22;51097;51.984;5.650;2023-08-06T13:02:20;19.80;99.90
44823;DHT22;51097;51.984;5.650;2023-08-06T13:04:46;19.70;99.90
44823;DHT22;51097;51.984;5.650;2023-08-06T13:07:12;19.60;99.90
44823;DHT22;51097;51.984;5.650;2023-08-06T13:09:37;19.70;99.90
44823;DHT22;51097;51.984;5.650;2023-08-06T13:12:03;19.80;99.90
44823;DHT22;51097;51.984;5.650;2023-08-06T13:14:31;19.70;99.90
44823;DHT22;51097;51.984;5.650;2023-08-06T13:16:56;19.70;99.90
44823;DHT22;51097;51.984;5.650;2023-08-06T13:19:22;19.70;99.90
44823;DHT22;51097;51.984;5.650;2023-08-06T13:24:15;19.90;99.90
44823;DHT22;51097;51.984;5.650;2023-08-06T13:26:40;19.90;99.90
44823;DHT22;51097;51.984;5.650;2023-08-06T13:29:06;19.90;99.90
44823;DHT22;51097;51.984;5.650;2023-08-06T13:31:32;20.00;99.90
44823;DHT22;51097;51.984;5.650;2023-08-06T13:33:58;20.00;99.90
44823;DHT22;51097;51.984;5.650;2023-08-06T13:36:25;20.10;99.90
44823;DHT22;51097;51.984;5.650;2023-08-06T13:38:51;20.20;99.90
44823;DHT22;51097;51.984;5.650;2023-08-06T13:41:17;20.30;99.90
44823;DHT22;51097;51.984;5.650;2023-08-06T13:43:43;20.30;99.90
44823;DHT22;51097;51.984;5.650;2023-08-06T13:46:10;20.40;99.90
44823;DHT22;51097;51.984;5.650;2023-08-06T13:48:41;20.40;99.90
44823;DHT22;51097;51.984;5.650;2023-08-06T13:51:07;20.50;99.90
44823;DHT22;51097;51.984;5.650;2023-08-06T13:53:33;20.60;99.90
44823;DHT22;51097;51.984;5.650;2023-08-06T13:55:59;20.70;99.90
44823;DHT22;51097;51.984;5.650;2023-08-06T13:58:24;20.70;99.90
44823;DHT22;51097;51.984;5.650;2023-08-06T14:00:51;20.70;99.90
44823;DHT22;51097;51.984;5.650;2023-08-06T14:03:18;20.70;99.90
44823;DHT22;51097;51.984;5.650;2023-08-06T14:05:44;20.80;99.90
44823;DHT22;51097;51.984;5.650;2023-08-06T14:08:10;20.80;99.90
44823;DHT22;51097;51.984;5.650;2023-08-06T14:10:35;20.90;99.90
44823;DHT22;51097;51.984;5.650;2023-08-06T14:13:01;20.80;99.90
44823;DHT22;51097;51.984;5.650;2023-08-06T14:15:27;20.80;99.90
44823;DHT22;51097;51.984;5.650;2023-08-06T14:17:52;20.70;99.90
44823;DHT22;51097;51.984;5.650;2023-08-06T14:20:18;20.70;99.90
44823;DHT22;51097;51.984;5.650;2023-08-06T14:22:43;20.80;99.90
44823;DHT22;51097;51.984;5.650;2023-08-06T14:25:09;20.80;99.90
44823;DHT22;51097;51.984;5.650;2023-08-06T14:27:35;20.80;99.90
44823;DHT22;51097;51.984;5.650;2023-08-06T14:30:05;20.80;99.90
44823;DHT22;51097;51.984;5.650;2023-08-06T14:32:31;20.90;99.90
44823;DHT22;51097;51.984;5.650;2023-08-06T14:34:56;20.80;99.90
44823;DHT22;51097;51.984;5.650;2023-08-06T14:37:24;20.80;99.90
44823;DHT22;51097;51.984;5.650;2023-08-06T14:39:50;20.80;99.90
44823;DHT22;51097;51.984;5.650;2023-08-06T14:42:15;20.60;99.90
44823;DHT22;51097;51.984;5.650;2023-08-06T14:44:41;20.70;99.90
44823;DHT22;51097;51.984;5.650;2023-08-06T14:47:07;20.70;99.90
44823;DHT22;51097;51.984;5.650;2023-08-06T14:49:32;20.70;99.90
44823;DHT22;51097;51.984;5.650;2023-08-06T14:51:58;20.70;99.90
44823;DHT22;51097;51.984;5.650;2023-08-06T14:54:25;20.70;99.90
44823;DHT22;51097;51.984;5.650;2023-08-06T14:56:52;20.70;99.90
44823;DHT22;51097;51.984;5.650;2023-08-06T14:59:17;20.60;99.90
44823;DHT22;51097;51.984;5.650;2023-08-06T15:01:43;20.70;99.90
44823;DHT22;51097;51.984;5.650;2023-08-06T15:04:09;20.70;99.90
44823;DHT22;51097;51.984;5.650;2023-08-06T15:06:34;20.80;99.90
44823;DHT22;51097;51.984;5.650;2023-08-06T15:09:00;20.80;99.90
44823;DHT22;51097;51.984;5.650;2023-08-06T15:11:26;20.80;99.90
44823;DHT22;51097;51.984;5.650;2023-08-06T15:13:52;20.80;99.90
44823;DHT22;51097;51.984;5.650;2023-08-06T15:16:18;20.70;99.90
44823;DHT22;51097;51.984;5.650;2023-08-06T15:18:43;20.70;99.90
44823;DHT22;51097;51.984;5.650;2023-08-06T15:21:09;20.80;99.90
44823;DHT22;51097;51.984;5.650;2023-08-06T15:23:35;20.70;99.90
44823;DHT22;51097;51.984;5.650;2023-08-06T15:26:02;20.60;99.90
44823;DHT22;51097;51.984;5.650;2023-08-06T15:28:28;20.60;99.90
44823;DHT22;51097;51.984;5.650;2023-08-06T15:30:54;20.60;99.90
44823;DHT22;51097;51.984;5.650;2023-08-06T15:33:21;20.70;99.90
44823;DHT22;51097;51.984;5.650;2023-08-06T15:35:47;20.70;99.90
44823;DHT22;51097;51.984;5.650;2023-08-06T15:38:13;20.70;99.90
44823;DHT22;51097;51.984;5.650;2023-08-06T15:40:38;20.70;99.90